Time;durP1;ratioP1;P1;durP2;ratioP2;P2;SDS_P1;SDS_P2;PMS_P1;PMS_P2;Temp;Humidity;BMP_temperature;BMP_pressure;BME280_temperature;BME280_humidity;BME280_pressure;Samples;Min_cycle;Max_cycle;Signal;HPM_P1;HPM_P2
2022/09/03 00:00:10;;;;;;;28.23;18.55;;;;;;;15.80;44.22;100062.12;1743120;82;23205;-45
2022/09/03 00:02:44;;;;;;;32.23;19.75;;;;;;;15.79;44.21;100063.28;1743127;82;21008;-44
2022/09/03 00:05:19;;;;;;;29.35;19.07;;;;;;;15.78;43.97;100067.17;1745498;81;21040;-44
2022/09/03 00:08:16;;;;;;;27.73;19.85;;;;;;;15.79;43.91;100066.02;1756235;81;21570;-44
2022/09/03 00:11:03;;;;;;;29.27;19.80;;;;;;;15.79;44.04;100067.37;1756306;81;21037;-44
2022/09/03 00:13:38;;;;;;;26.33;19.95;;;;;;;15.78;44.53;100070.52;1756100;81;21994;-44
2022/09/03 00:16:09;;;;;;;28.45;18.85;;;;;;;15.78;45.40;100071.27;1751115;81;21056;-44
2022/09/03 00:18:42;;;;;;;28.77;20.10;;;;;;;15.77;45.19;100068.94;1756316;81;21001;-44
2022/09/03 00:21:16;;;;;;;26.07;19.27;;;;;;;15.75;45.34;100069.30;1756165;81;21033;-45
2022/09/03 00:23:44;;;;;;;26.95;19.45;;;;;;;15.77;45.94;100067.56;1756253;81;21029;-44
2022/09/03 00:26:21;;;;;;;28.95;20.90;;;;;;;15.75;45.87;100071.25;1756237;81;21241;-44
2022/09/03 00:29:02;;;;;;;28.62;19.85;;;;;;;15.76;45.88;100067.36;1756386;81;21024;-44
2022/09/03 00:31:44;;;;;;;27.07;18.85;;;;;;;15.77;45.47;100066.98;1756408;81;21460;-44
2022/09/03 00:34:20;;;;;;;26.52;18.87;;;;;;;15.75;45.47;100069.30;1756241;81;20886;-44
2022/09/03 00:36:47;;;;;;;26.25;18.87;;;;;;;15.73;45.25;100073.02;1756453;81;20991;-45
2022/09/03 00:39:20;;;;;;;25.43;19.12;;;;;;;15.71;45.38;100073.16;1756296;81;21124;-44
2022/09/03 00:42:08;;;;;;;26.75;20.62;;;;;;;15.70;45.27;100066.91;1756585;81;21527;-44
2022/09/03 00:45:08;;;;;;;26.87;19.20;;;;;;;15.65;45.41;100061.20;1748981;81;21028;-44
2022/09/03 00:47:50;;;;;;;27.45;19.02;;;;;;;15.63;45.64;100062.76;1756456;81;21072;-44
2022/09/03 00:50:59;;;;;;;25.82;18.37;;;;;;;15.61;45.87;100060.97;1748559;81;21613;-44
2022/09/03 00:54:11;;;;;;;26.07;19.05;;;;;;;15.61;45.78;100059.60;1756454;81;21227;-44
2022/09/03 00:56:55;;;;;;;25.43;18.35;;;;;;;15.57;45.89;100060.16;1756172;81;21072;-44
2022/09/03 00:59:37;;;;;;;24.87;18.20;;;;;;;15.52;45.95;100064.59;1748709;81;21092;-44
2022/09/03 01:02:35;;;;;;;28.55;18.70;;;;;;;15.50;45.92;100060.83;1756310;81;20964;-45
2022/09/03 01:05:19;;;;;;;28.27;18.85;;;;;;;15.50;46.27;100058.09;1756262;81;21080;-44
2022/09/03 01:08:32;;;;;;;27.30;18.67;;;;;;;15.51;46.47;100068.48;1747182;81;21133;-45
2022/09/03 01:11:25;;;;;;;28.57;19.17;;;;;;;15.51;46.70;100069.84;1756205;81;21016;-44
2022/09/03 01:14:12;;;;;;;24.98;17.62;;;;;;;15.48;46.75;100066.48;1752350;81;21029;-44
2022/09/03 01:16:51;;;;;;;25.32;18.17;;;;;;;15.45;47.03;100061.74;1755880;81;21084;-44
2022/09/03 01:19:51;;;;;;;24.00;17.57;;;;;;;15.44;47.41;100068.39;1756200;81;21029;-44
2022/09/03 01:23:14;;;;;;;25.57;18.30;;;;;;;15.43;47.58;100068.97;1756222;81;21222;-44
2022/09/03 01:26:01;;;;;;;22.93;16.27;;;;;;;15.40;47.16;100058.77;1756150;81;21532;-44
2022/09/03 01:29:04;;;;;;;24.72;15.95;;;;;;;15.36;47.00;100059.89;1756549;81;21456;-44
2022/09/03 01:31:48;;;;;;;20.82;15.45;;;;;;;15.36;46.88;100066.72;1756258;81;21041;-44
2022/09/03 01:34:42;;;;;;;20.55;14.90;;;;;;;15.33;46.89;100067.48;1756374;81;21026;-44
2022/09/03 01:37:50;;;;;;;21.25;15.30;;;;;;;15.33;46.76;100070.21;1756494;81;21242;-44
2022/09/03 01:40:44;;;;;;;21.85;14.65;;;;;;;15.31;46.53;100065.11;1756197;81;21017;-44
2022/09/03 01:43:40;;;;;;;22.30;15.30;;;;;;;15.30;46.90;100067.63;1741860;81;21043;-44
2022/09/03 01:46:21;;;;;;;23.55;15.85;;;;;;;15.32;46.99;100067.27;1756364;81;20977;-44
2022/09/03 01:49:19;;;;;;;22.70;15.48;;;;;;;15.32;46.69;100068.64;1756500;81;21040;-45
2022/09/03 01:51:46;;;;;;;22.55;16.67;;;;;;;15.34;46.83;100074.52;1756110;81;23245;-44
2022/09/03 01:54:27;;;;;;;22.32;15.55;;;;;;;15.33;46.60;100074.31;1756153;81;21602;-45
2022/09/03 01:57:25;;;;;;;25.75;16.07;;;;;;;15.34;46.65;100070.42;1756176;81;21515;-44
2022/09/03 02:00:07;;;;;;;22.60;15.20;;;;;;;15.34;47.18;100063.02;1756165;81;21561;-44
2022/09/03 02:02:37;;;;;;;24.87;15.83;;;;;;;15.34;46.60;100067.69;1752798;81;21072;-44
2022/09/03 02:05:13;;;;;;;21.07;15.20;;;;;;;15.33;46.72;100062.81;1751340;81;21196;-45
2022/09/03 02:07:51;;;;;;;22.40;14.73;;;;;;;15.33;46.63;100058.70;1754150;81;21186;-45
2022/09/03 02:10:35;;;;;;;23.62;15.43;;;;;;;15.33;46.66;100068.27;1735457;81;21029;-45
2022/09/03 02:13:19;;;;;;;22.45;15.83;;;;;;;15.32;46.58;100061.80;1712742;82;21074;-44
2022/09/03 02:15:48;;;;;;;22.32;15.32;;;;;;;15.30;46.67;100061.41;1727673;82;21004;-44
2022/09/03 02:20:15;;;;;;;24.12;16.15;;;;;;;15.30;46.63;100069.61;1814953;79;22137;-44
2022/09/03 02:22:42;;;;;;;25.35;15.98;;;;;;;15.20;46.88;100075.91;1788010;80;20952;-44
2022/09/03 02:25:09;;;;;;;21.90;15.63;;;;;;;15.23;46.95;100071.67;1788003;80;21091;-45
2022/09/03 02:27:38;;;;;;;27.10;16.42;;;;;;;15.25;46.88;100072.67;1787759;80;20952;-44
2022/09/03 02:30:07;;;;;;;22.58;15.50;;;;;;;15.25;47.27;100075.41;1787805;80;20977;-44
2022/09/03 02:32:35;;;;;;;22.67;15.20;;;;;;;15.26;47.32;100078.31;1788006;80;20906;-44
2022/09/03 02:35:02;;;;;;;21.23;15.20;;;;;;;15.28;47.14;100073.28;1787917;80;21606;-44
2022/09/03 02:37:29;;;;;;;21.42;14.78;;;;;;;15.29;47.18;100077.59;1787756;80;21088;-44
2022/09/03 02:39:56;;;;;;;18.02;14.73;;;;;;;15.29;47.16;100081.69;1787616;80;20941;-44
2022/09/03 02:42:23;;;;;;;23.40;16.10;;;;;;;15.31;47.26;100080.72;1787625;80;20973;-44
2022/09/03 02:44:55;;;;;;;20.75;15.18;;;;;;;15.29;47.04;100082.48;1787734;80;21594;-44
2022/09/03 02:47:22;;;;;;;21.27;15.38;;;;;;;15.29;47.07;100084.42;1787753;80;21008;-44
2022/09/03 02:49:49;;;;;;;20.57;14.58;;;;;;;15.28;47.42;100083.63;1787875;80;21137;-44
2022/09/03 02:52:16;;;;;;;19.15;14.55;;;;;;;15.28;47.46;100082.84;1787659;80;20961;-44
2022/09/03 02:54:44;;;;;;;20.92;14.33;;;;;;;15.30;47.82;100089.48;1787707;80;20968;-44
2022/09/03 02:57:15;;;;;;;23.02;14.15;;;;;;;15.30;47.91;100086.00;1787897;80;21025;-44
2022/09/03 02:59:44;;;;;;;20.25;14.50;;;;;;;15.31;47.72;100087.55;1787879;80;21076;-44
2022/09/03 03:02:12;;;;;;;20.90;14.28;;;;;;;15.32;47.78;100087.76;1787999;80;21227;-45
2022/09/03 03:04:39;;;;;;;18.20;13.13;;;;;;;15.32;47.66;100090.49;1788263;80;21021;-44
2022/09/03 03:07:06;;;;;;;20.40;14.00;;;;;;;15.33;48.19;100094.80;1788113;80;21024;-44
2022/09/03 03:09:34;;;;;;;20.50;13.83;;;;;;;15.33;48.11;100105.73;1787987;80;21008;-45
2022/09/03 03:12:02;;;;;;;24.07;15.48;;;;;;;15.25;47.77;100123.20;1787983;80;21008;-45
2022/09/03 03:14:29;;;;;;;20.40;15.85;;;;;;;15.02;48.78;100117.25;1788209;80;21091;-45
2022/09/03 03:16:56;;;;;;;19.42;15.13;;;;;;;14.81;49.39;100125.75;1787663;80;20948;-44
2022/09/03 03:19:24;;;;;;;23.60;15.70;;;;;;;14.65;49.95;100132.73;1780340;80;20996;-44
2022/09/03 03:21:51;;;;;;;21.55;15.68;;;;;;;14.54;50.14;100127.68;1774228;80;21036;-44
2022/09/03 03:24:18;;;;;;;20.45;15.03;;;;;;;14.48;50.41;100133.23;1774267;80;21080;-44
2022/09/03 03:26:45;;;;;;;22.22;15.00;;;;;;;14.41;50.60;100133.14;1774153;80;21226;-44
2022/09/03 03:29:16;;;;;;;20.95;15.15;;;;;;;14.35;50.73;100133.41;1774205;80;21078;-44
2022/09/03 03:31:43;;;;;;;21.70;14.28;;;;;;;14.37;50.61;100135.03;1773759;80;21032;-44
2022/09/03 03:34:10;;;;;;;22.22;14.93;;;;;;;14.40;50.74;100132.34;1773847;80;21577;-44
2022/09/03 03:36:37;;;;;;;21.68;14.58;;;;;;;14.42;50.84;100130.62;1773774;80;21088;-44
2022/09/03 03:39:04;;;;;;;18.65;14.63;;;;;;;14.43;50.86;100126.14;1773587;80;23138;-44
2022/09/03 03:41:34;;;;;;;21.50;15.25;;;;;;;14.42;51.22;100128.69;1773725;80;21490;-44
2022/09/03 03:44:03;;;;;;;19.45;13.78;;;;;;;14.42;51.24;100127.33;1773826;80;21526;-44
2022/09/03 03:46:33;;;;;;;26.23;14.63;;;;;;;14.44;51.41;100127.73;1773964;80;21037;-44
2022/09/03 03:49:00;;;;;;;23.10;13.75;;;;;;;14.39;51.36;100126.67;1773943;80;20997;-44
2022/09/03 03:51:29;;;;;;;21.73;14.78;;;;;;;14.38;51.32;100128.42;1773744;80;23149;-44
2022/09/03 03:53:57;;;;;;;22.22;14.78;;;;;;;14.33;51.57;100126.16;1773954;80;21063;-44
2022/09/03 03:56:25;;;;;;;21.02;14.55;;;;;;;14.37;52.14;100125.48;1774055;80;21012;-44
2022/09/03 03:58:53;;;;;;;19.35;13.75;;;;;;;14.42;52.43;100120.50;1773822;80;21016;-44
2022/09/03 04:01:23;;;;;;;18.32;13.85;;;;;;;14.47;51.85;100117.47;1774037;80;20965;-44
2022/09/03 04:03:50;;;;;;;21.40;14.40;;;;;;;14.53;51.98;100122.80;1774026;80;21613;-44
2022/09/03 04:06:18;;;;;;;20.62;14.13;;;;;;;14.59;52.16;100119.18;1773576;80;20965;-44
2022/09/03 04:08:47;;;;;;;18.42;13.75;;;;;;;14.65;52.03;100125.91;1773730;80;21503;-45
2022/09/03 04:11:17;;;;;;;22.35;14.15;;;;;;;14.69;51.98;100121.28;1773878;80;21527;-44
2022/09/03 04:13:45;;;;;;;19.48;14.03;;;;;;;14.75;51.99;100118.45;1773752;80;21037;-44
2022/09/03 04:16:22;;;;;;;21.33;14.13;;;;;;;14.80;52.24;100120.86;1773594;80;21231;-44
2022/09/03 04:18:52;;;;;;;20.92;13.50;;;;;;;14.85;52.55;100117.81;1773861;80;21005;-45
2022/09/03 04:21:25;;;;;;;19.10;13.70;;;;;;;14.85;52.92;100117.81;1773679;80;20934;-44
2022/09/03 04:23:53;;;;;;;19.55;13.45;;;;;;;14.87;53.59;100123.67;1773721;80;21024;-44
2022/09/03 04:26:23;;;;;;;19.70;13.22;;;;;;;14.90;53.57;100121.59;1773757;80;20965;-44
2022/09/03 04:28:51;;;;;;;20.05;13.75;;;;;;;14.91;53.54;100125.11;1772890;80;21818;-45
2022/09/03 04:31:19;;;;;;;19.23;13.30;;;;;;;14.89;53.73;100125.47;1768295;80;20961;-44
2022/09/03 04:33:46;;;;;;;19.45;13.32;;;;;;;14.90;53.98;100127.63;1768423;80;21036;-45
2022/09/03 04:36:20;;;;;;;18.40;13.15;;;;;;;14.91;54.43;100131.94;1773718;80;21009;-44
2022/09/03 04:38:50;;;;;;;17.80;12.70;;;;;;;14.92;54.68;100131.55;1773466;80;21036;-44
2022/09/03 04:41:18;;;;;;;;;;;;;;;14.94;54.75;100126.52;1776729;80;21109;-44
2022/09/03 04:43:45;;;;;;;19.07;13.45;;;;;;;14.96;54.82;100122.81;1773771;80;20124;-44
2022/09/03 04:46:13;;;;;;;20.48;13.55;;;;;;;14.90;54.79;100125.69;1773859;80;20934;-44
2022/09/03 04:48:39;;;;;;;17.35;12.47;;;;;;;14.96;54.91;100124.79;1746965;80;20970;-44
2022/09/03 04:51:10;;;;;;;19.37;12.85;;;;;;;15.00;54.91;100127.77;1734663;82;21092;-44
2022/09/03 04:53:42;;;;;;;19.15;13.38;;;;;;;15.01;54.88;100127.95;1734537;82;21109;-44
2022/09/03 04:56:24;;;;;;;18.02;12.82;;;;;;;15.02;54.94;100128.75;1734640;82;21558;-44
2022/09/03 04:59:03;;;;;;;18.12;13.08;;;;;;;15.03;54.75;100122.92;1733747;82;21261;-44
2022/09/03 05:01:32;;;;;;;17.80;12.75;;;;;;;14.78;55.20;100087.10;1734485;82;20966;-44
2022/09/03 05:03:59;;;;;;;17.90;12.93;;;;;;;15.11;55.43;100123.22;1734498;82;21050;-44
2022/09/03 05:06:26;;;;;;;18.15;12.33;;;;;;;15.16;55.14;100121.52;1734425;82;21122;-44
2022/09/03 05:08:55;;;;;;;17.20;11.60;;;;;;;15.22;54.92;100119.26;1734487;82;20993;-44
2022/09/03 05:11:23;;;;;;;17.07;11.85;;;;;;;15.28;54.03;100115.63;1734526;82;21547;-44
2022/09/03 05:13:53;;;;;;;17.17;12.63;;;;;;;15.33;54.44;100122.91;1734522;82;21026;-44
2022/09/03 05:16:22;;;;;;;15.78;11.90;;;;;;;15.38;55.48;100121.22;1734485;82;21001;-44
2022/09/03 05:18:55;;;;;;;15.88;11.38;;;;;;;15.44;55.22;100120.31;1734462;82;23110;-45
2022/09/03 05:21:22;;;;;;;20.02;11.25;;;;;;;15.50;54.91;100124.26;1748438;82;21558;-45
2022/09/03 05:23:50;;;;;;;17.35;11.75;;;;;;;15.56;55.00;100121.44;1748416;82;21558;-44
2022/09/03 05:26:20;;;;;;;16.15;10.93;;;;;;;15.62;54.70;100118.00;1748474;82;20998;-44
2022/09/03 05:28:47;;;;;;;16.90;11.10;;;;;;;15.70;54.36;100110.65;1748791;82;21507;-44
2022/09/03 05:31:17;;;;;;;16.05;11.57;;;;;;;15.76;53.59;100110.52;1748734;82;21534;-44
2022/09/03 05:33:49;;;;;;;;;;;;;;;15.81;54.28;100121.12;1751309;82;21032;-44
2022/09/03 05:36:19;;;;;;;14.07;10.10;;;;;;;15.88;53.77;100117.65;1748802;82;20114;-44
2022/09/03 05:38:46;;;;;;;17.30;11.33;;;;;;;15.84;53.20;100120.35;1748732;82;21037;-45
2022/09/03 05:41:14;;;;;;;17.12;11.22;;;;;;;15.92;52.19;100112.44;1748413;82;21053;-45
2022/09/03 05:43:41;;;;;;;18.60;11.57;;;;;;;16.00;51.55;100116.80;1748431;82;21109;-44
2022/09/03 05:46:12;;;;;;;16.65;11.45;;;;;;;16.07;51.37;100110.02;1748279;82;21044;-44
2022/09/03 05:48:40;;;;;;;18.98;11.83;;;;;;;16.13;51.41;100109.66;1748304;82;20965;-44
2022/09/03 05:51:10;;;;;;;16.77;12.00;;;;;;;16.18;51.80;100113.42;1748411;82;21559;-45
2022/09/03 05:53:39;;;;;;;20.80;11.50;;;;;;;16.24;51.61;100108.60;1748547;82;21361;-44
2022/09/03 05:56:12;;;;;;;17.17;11.65;;;;;;;16.32;51.41;100105.33;1748552;82;21233;-45
2022/09/03 05:58:42;;;;;;;16.52;11.53;;;;;;;16.41;51.17;100105.81;1748320;82;21570;-45
2022/09/03 06:01:24;;;;;;;16.60;10.93;;;;;;;16.49;51.23;100102.73;1748634;82;21033;-45
2022/09/03 06:03:57;;;;;;;15.98;9.98;;;;;;;16.61;50.85;100102.23;1748610;82;20972;-44
2022/09/03 06:06:25;;;;;;;17.75;9.48;;;;;;;16.71;50.25;100101.52;1747807;82;21571;-44
2022/09/03 06:08:54;;;;;;;14.18;9.23;;;;;;;16.81;50.02;100105.69;1748583;82;21163;-44
2022/09/03 06:11:25;;;;;;;14.05;8.30;;;;;;;16.93;49.47;100104.00;1748412;82;20980;-44
2022/09/03 06:13:50;;;;;;;12.35;7.95;;;;;;;17.05;49.20;100102.08;1748529;81;21033;-44
2022/09/03 06:16:18;;;;;;;10.75;7.58;;;;;;;17.15;49.08;100102.13;1744567;82;21594;-45
2022/09/03 06:18:45;;;;;;;12.33;7.05;;;;;;;17.23;48.82;100104.33;1748630;82;21105;-44
2022/09/03 06:21:13;;;;;;;11.65;7.53;;;;;;;17.32;48.70;100099.27;1736635;81;23176;-45
2022/09/03 06:23:41;;;;;;;12.18;7.90;;;;;;;17.38;48.78;100103.19;1734458;82;21475;-44
2022/09/03 06:26:12;;;;;;;13.72;8.23;;;;;;;17.45;48.92;100107.33;1734877;82;21539;-45
2022/09/03 06:28:42;;;;;;;13.20;8.53;;;;;;;17.54;49.14;100106.38;1734458;82;20965;-44
2022/09/03 06:31:11;;;;;;;14.07;8.13;;;;;;;17.61;49.36;100105.65;1735002;82;21528;-45
2022/09/03 06:33:39;;;;;;;14.43;8.75;;;;;;;17.68;48.29;100107.81;1734557;82;21225;-45
2022/09/03 06:36:09;;;;;;;11.35;7.47;;;;;;;17.73;47.24;100103.31;1734365;82;21032;-45
2022/09/03 06:38:37;;;;;;;13.45;7.55;;;;;;;17.80;46.88;100101.18;1734271;82;20910;-45
2022/09/03 06:41:09;;;;;;;15.00;8.60;;;;;;;17.85;46.68;100095.89;1734328;82;21016;-45
2022/09/03 06:43:39;;;;;;;11.93;7.75;;;;;;;17.90;46.43;100096.88;1734176;82;21507;-45
2022/09/03 06:46:11;;;;;;;11.43;7.37;;;;;;;17.96;47.11;100104.92;1734809;82;21076;-44
2022/09/03 06:48:39;;;;;;;16.62;7.42;;;;;;;18.02;46.73;100099.22;1734303;82;21123;-44
2022/09/03 06:51:10;;;;;;;10.63;6.87;;;;;;;18.08;46.50;100100.41;1734510;82;20969;-44
2022/09/03 06:53:41;;;;;;;19.32;8.63;;;;;;;18.15;46.17;100101.80;1734346;82;20969;-44
2022/09/03 06:56:13;;;;;;;18.02;8.85;;;;;;;18.20;46.53;100103.53;1734147;82;21014;-45
2022/09/03 06:58:45;;;;;;;14.50;8.15;;;;;;;18.24;47.32;100109.05;1734446;82;21222;-44
2022/09/03 07:01:15;;;;;;;16.90;7.55;;;;;;;18.27;46.92;100117.86;1734659;82;20973;-44
2022/09/03 07:03:43;;;;;;;14.70;8.68;;;;;;;18.34;46.51;100112.38;1734609;82;21065;-44
2022/09/03 07:06:12;;;;;;;16.42;8.75;;;;;;;18.42;47.04;100114.52;1734982;82;21072;-45
2022/09/03 07:08:41;;;;;;;14.18;8.98;;;;;;;18.44;47.13;100121.20;1734697;82;21018;-45
2022/09/03 07:11:16;;;;;;;12.28;9.23;;;;;;;18.52;47.11;100121.38;1734853;82;21136;-45
2022/09/03 07:13:46;;;;;;;15.43;10.58;;;;;;;18.58;46.82;100118.46;1734645;82;22271;-45
2022/09/03 07:16:16;;;;;;;12.90;9.80;;;;;;;18.55;46.85;100127.47;1735258;82;20961;-44
2022/09/03 07:18:45;;;;;;;15.20;9.63;;;;;;;18.55;46.85;100127.47;1734734;82;21955;-45
2022/09/03 07:21:16;;;;;;;14.53;10.13;;;;;;;18.58;46.36;100132.78;1744519;81;21542;-44
2022/09/03 07:23:45;;;;;;;15.88;9.85;;;;;;;18.61;46.77;100130.02;1748587;82;21079;-45
2022/09/03 07:26:16;;;;;;;18.07;9.45;;;;;;;18.62;46.29;100134.92;1748452;82;21021;-44
2022/09/03 07:28:48;;;;;;;11.05;8.83;;;;;;;18.60;45.88;100138.06;1748172;82;20964;-44
2022/09/03 07:31:20;;;;;;;11.08;7.62;;;;;;;18.64;45.95;100140.20;1747753;82;21644;-45
2022/09/03 07:33:47;;;;;;;11.55;7.47;;;;;;;18.64;45.47;100139.42;1748669;82;21024;-44
2022/09/03 07:36:16;;;;;;;12.68;6.95;;;;;;;18.65;45.55;100140.99;1748627;82;21136;-44
2022/09/03 07:38:44;;;;;;;9.33;6.70;;;;;;;18.68;44.71;100135.31;1748375;82;21531;-44
2022/09/03 07:41:13;;;;;;;11.65;6.62;;;;;;;18.72;44.47;100134.12;1748576;82;20985;-45
2022/09/03 07:43:45;;;;;;;10.95;6.58;;;;;;;18.78;45.07;100138.64;1748435;82;21387;-45
2022/09/03 07:46:21;;;;;;;9.18;5.60;;;;;;;18.85;44.97;100138.61;1748817;82;21016;-45
2022/09/03 07:48:47;;;;;;;11.22;5.45;;;;;;;18.91;44.35;100143.31;1747770;82;23158;-45
2022/09/03 07:51:16;;;;;;;7.75;5.78;;;;;;;18.97;43.16;100144.48;1748347;82;21544;-44
2022/09/03 07:53:48;;;;;;;10.13;6.17;;;;;;;19.05;42.77;100146.02;1748355;82;21060;-44
2022/09/03 07:56:15;;;;;;;11.22;5.97;;;;;;;19.12;42.52;100145.22;1748581;82;21045;-45
2022/09/03 07:58:42;;;;;;;7.97;5.47;;;;;;;19.17;42.66;100130.28;1748581;82;21546;-44
2022/09/03 08:01:11;;;;;;;13.48;6.12;;;;;;;19.25;42.46;100134.56;1748412;82;23120;-44
2022/09/03 08:03:48;;;;;;;9.43;5.80;;;;;;;19.29;41.92;100127.86;1748803;82;21012;-44
2022/09/03 08:06:16;;;;;;;9.33;6.40;;;;;;;19.34;41.83;100132.16;1723571;82;21072;-44
2022/09/03 08:08:46;;;;;;;8.40;5.37;;;;;;;19.38;41.60;100144.71;1748597;82;21523;-45
2022/09/03 08:11:15;;;;;;;7.55;5.40;;;;;;;19.40;41.66;100140.98;1748820;82;21029;-44
2022/09/03 08:13:47;;;;;;;10.98;6.17;;;;;;;19.44;40.74;100141.78;1749098;82;21088;-45
2022/09/03 08:16:17;;;;;;;8.15;5.80;;;;;;;19.37;40.78;100138.23;1748586;82;20957;-44
2022/09/03 08:18:46;;;;;;;9.50;5.70;;;;;;;19.34;40.78;100142.58;1748863;82;21043;-45
2022/09/03 08:21:16;;;;;;;9.83;5.83;;;;;;;19.34;41.18;100146.70;1748706;82;21041;-45
2022/09/03 08:23:47;;;;;;;8.63;5.62;;;;;;;19.39;40.61;100138.03;1748368;82;21096;-45
2022/09/03 08:26:15;;;;;;;10.70;5.80;;;;;;;19.44;40.87;100137.66;1748930;81;21025;-45
2022/09/03 08:28:42;;;;;;;9.33;5.45;;;;;;;19.52;40.58;100135.64;1748306;82;20957;-45
2022/09/03 08:31:17;;;;;;;10.13;5.55;;;;;;;19.64;40.48;100134.41;1748518;82;21032;-45
2022/09/03 08:33:47;;;;;;;7.28;5.08;;;;;;;19.77;39.45;100131.38;1748379;81;20965;-45
2022/09/03 08:36:22;;;;;;;8.73;5.42;;;;;;;19.88;39.86;100130.13;1749016;82;21088;-45
2022/09/03 08:38:53;;;;;;;8.83;5.55;;;;;;;20.03;39.78;100121.78;1748653;82;21590;-45
2022/09/03 08:41:32;;;;;;;9.18;5.40;;;;;;;20.16;39.87;100124.22;1748458;82;20961;-44
2022/09/03 08:44:07;;;;;;;7.55;5.42;;;;;;;20.29;39.39;100121.94;1748671;81;21326;-44
2022/09/03 08:47:21;;;;;;;8.93;5.53;;;;;;;20.45;39.09;100115.16;1748405;81;21012;-44
2022/09/03 08:50:13;;;;;;;11.05;5.45;;;;;;;20.58;39.30;100114.82;1748637;82;21029;-45
2022/09/03 08:53:03;;;;;;;11.15;5.37;;;;;;;20.68;38.97;100113.94;1748314;81;21241;-45
2022/09/03 08:55:44;;;;;;;6.90;5.30;;;;;;;20.82;38.63;100115.16;1748287;81;21020;-45
2022/09/03 08:58:20;;;;;;;8.23;5.28;;;;;;;20.97;38.49;100114.41;1741076;82;20976;-44
2022/09/03 09:01:26;;;;;;;7.15;5.03;;;;;;;21.09;37.51;100109.76;1748502;82;21524;-44
2022/09/03 09:04:14;;;;;;;7.12;4.92;;;;;;;21.19;37.50;100105.53;1748726;82;21045;-45
2022/09/03 09:07:10;;;;;;;10.45;5.37;;;;;;;21.35;37.87;100100.02;1748669;82;21140;-44
2022/09/03 09:10:00;;;;;;;7.47;5.12;;;;;;;21.51;37.27;100099.58;1748580;82;21022;-44
2022/09/03 09:12:43;;;;;;;11.48;4.75;;;;;;;21.66;36.94;100101.55;1748880;81;21056;-45
2022/09/03 09:15:55;;;;;;;8.48;4.92;;;;;;;21.74;36.94;100100.23;1748548;81;21523;-44
2022/09/03 09:19:01;;;;;;;6.90;4.58;;;;;;;21.84;36.46;100097.13;1748550;82;21037;-44
2022/09/03 09:21:40;;;;;;;8.73;4.90;;;;;;;21.84;36.22;100099.30;1740467;81;21142;-45
2022/09/03 09:24:10;;;;;;;7.45;4.58;;;;;;;21.88;35.60;100093.11;1734407;82;20961;-45
2022/09/03 09:26:39;;;;;;;10.20;4.65;;;;;;;21.95;35.63;100090.88;1734569;82;22118;-45
2022/09/03 09:29:12;;;;;;;6.97;4.92;;;;;;;22.02;34.99;100088.80;1734466;82;21054;-45
2022/09/03 09:31:37;;;;;;;6.97;4.30;;;;;;;22.08;34.69;100084.34;1734112;82;21005;-45
2022/09/03 09:34:06;;;;;;;6.47;4.33;;;;;;;22.14;34.57;100080.51;1734504;82;21194;-45
2022/09/03 09:36:48;;;;;;;6.95;4.40;;;;;;;22.18;34.15;100084.59;1734455;82;20989;-45
2022/09/03 09:39:16;;;;;;;7.05;4.55;;;;;;;22.20;34.01;100083.58;1734460;82;20922;-45
2022/09/03 09:41:45;;;;;;;9.88;4.70;;;;;;;22.20;34.04;100084.95;1734457;82;21013;-45
2022/09/03 09:44:19;;;;;;;5.50;4.47;;;;;;;22.14;33.84;100081.11;1711272;82;21495;-45
2022/09/03 09:46:47;;;;;;;6.28;4.50;;;;;;;22.01;34.19;100085.86;1734545;82;21798;-45
2022/09/03 09:49:34;;;;;;;6.50;4.33;;;;;;;21.92;34.20;100086.97;1734390;82;21600;-45
2022/09/03 09:52:15;;;;;;;7.30;4.37;;;;;;;21.87;33.88;100083.30;1734561;82;21085;-44
2022/09/03 09:54:41;;;;;;;4.67;3.98;;;;;;;21.76;34.52;100085.42;1714800;82;21002;-45
2022/09/03 09:57:25;;;;;;;6.75;3.72;;;;;;;21.75;35.35;100078.34;1734492;82;21081;-45
2022/09/03 10:00:12;;;;;;;5.15;3.65;;;;;;;21.76;33.86;100085.42;1734291;82;23162;-45
2022/09/03 10:02:41;;;;;;;5.75;3.77;;;;;;;21.77;33.69;100075.17;1734352;82;21002;-45
2022/09/03 10:05:32;;;;;;;6.40;3.77;;;;;;;21.83;33.38;100079.03;1713995;82;22022;-45
2022/09/03 10:08:05;;;;;;;5.58;4.03;;;;;;;21.88;33.12;100082.07;1734514;82;21069;-44
2022/09/03 10:10:37;;;;;;;5.97;3.90;;;;;;;21.91;33.20;100082.63;1714296;82;20966;-44
2022/09/03 10:13:13;;;;;;;6.40;3.85;;;;;;;21.95;33.31;100079.24;1734631;82;21849;-45
2022/09/03 10:15:57;;;;;;;7.40;3.62;;;;;;;22.04;33.67;100082.84;1733772;82;21531;-45
2022/09/03 10:18:38;;;;;;;5.75;3.72;;;;;;;22.14;33.03;100076.97;1734692;82;21001;-45
2022/09/03 10:21:46;;;;;;;4.45;3.30;;;;;;;22.25;33.12;100079.73;1738336;82;20938;-45
2022/09/03 10:24:48;;;;;;;4.97;3.83;;;;;;;22.40;33.45;100067.84;1748748;81;21021;-45
2022/09/03 10:27:16;;;;;;;6.08;3.85;;;;;;;22.55;32.73;100066.38;1741141;82;21982;-45
2022/09/03 10:29:43;;;;;;;5.55;4.10;;;;;;;22.70;31.77;100064.94;1748513;82;21020;-45
2022/09/03 10:32:34;;;;;;;6.70;4.05;;;;;;;22.78;31.84;100058.06;1748560;82;21483;-45
2022/09/03 10:35:15;;;;;;;4.10;3.30;;;;;;;22.93;32.14;100058.55;1727614;82;21503;-45
2022/09/03 10:37:57;;;;;;;7.03;3.85;;;;;;;23.13;31.01;100057.16;1748352;81;21504;-44
2022/09/03 10:40:41;;;;;;;6.87;3.87;;;;;;;23.27;31.49;100059.02;1748376;82;21237;-45
2022/09/03 10:43:23;;;;;;;4.62;3.92;;;;;;;23.40;30.74;100066.04;1747793;82;20968;-44
2022/09/03 10:46:18;;;;;;;9.35;3.87;;;;;;;23.50;30.69;100061.50;1748635;82;21005;-45
2022/09/03 10:49:18;;;;;;;5.17;3.67;;;;;;;23.67;29.48;100061.09;1748437;82;21634;-45
2022/09/03 10:51:53;;;;;;;5.55;3.87;;;;;;;23.74;30.03;100054.02;1748656;81;21119;-44
2022/09/03 10:54:47;;;;;;;5.55;3.90;;;;;;;24.01;29.49;100054.37;1731648;82;21290;-45
2022/09/03 10:57:47;;;;;;;6.22;4.70;;;;;;;24.24;28.92;100052.81;1748547;81;21029;-45
2022/09/03 11:00:17;;;;;;;6.85;4.87;;;;;;;24.48;27.96;100045.84;1759235;81;21865;-45
2022/09/03 11:03:20;;;;;;;6.62;4.28;;;;;;;24.71;28.00;100046.80;1772169;81;21017;-45
2022/09/03 11:06:05;;;;;;;5.53;4.60;;;;;;;24.87;27.70;100041.23;1771702;81;21065;-45
2022/09/03 11:08:50;;;;;;;6.80;5.12;;;;;;;24.95;28.04;100039.20;1771728;81;21221;-45
2022/09/03 11:11:36;;;;;;;6.47;4.65;;;;;;;25.02;27.73;100032.67;1771730;81;20926;-45
2022/09/03 11:14:09;;;;;;;7.75;4.65;;;;;;;24.99;27.93;100034.31;1771887;81;21024;-45
2022/09/03 11:16:45;;;;;;;6.92;4.20;;;;;;;24.95;28.09;100035.64;1771736;81;20921;-45
2022/09/03 11:19:17;;;;;;;8.88;4.85;;;;;;;24.88;28.63;100040.02;1771877;81;21049;-44
2022/09/03 11:21:44;;;;;;;9.95;4.80;;;;;;;24.81;28.80;100037.41;1775512;80;21132;-45
2022/09/03 11:24:25;;;;;;;10.88;5.15;;;;;;;24.74;28.46;100023.13;1781816;80;21797;-45
2022/09/03 11:27:03;;;;;;;7.78;5.28;;;;;;;24.65;28.48;100025.76;1781964;80;21075;-45
2022/09/03 11:29:41;;;;;;;8.63;5.03;;;;;;;24.52;28.70;100022.95;1713386;80;21024;-45
2022/09/03 11:32:11;;;;;;;7.35;4.95;;;;;;;24.42;29.13;100017.09;1782098;80;21087;-45
2022/09/03 11:34:50;;;;;;;6.08;4.72;;;;;;;24.38;29.12;100014.25;1781557;80;21115;-45
2022/09/03 11:37:26;;;;;;;6.67;4.55;;;;;;;24.37;29.34;100014.85;1782089;80;21076;-45
2022/09/03 11:40:17;;;;;;;8.70;4.78;;;;;;;24.40;29.59;100009.81;1782367;80;20957;-45
2022/09/03 11:42:43;;;;;;;7.80;4.70;;;;;;;24.51;29.66;100004.77;1754089;80;21017;-45
2022/09/03 11:45:34;;;;;;;8.23;4.80;;;;;;;24.57;29.20;100008.56;1782229;80;20957;-45
2022/09/03 11:48:02;;;;;;;9.80;4.20;;;;;;;24.61;28.63;100007.84;1782022;80;21286;-44
2022/09/03 11:50:31;;;;;;;5.80;4.08;;;;;;;24.68;28.86;100005.48;1751631;80;21460;-45
2022/09/03 11:53:10;;;;;;;7.85;4.08;;;;;;;24.75;28.27;100001.72;1782073;80;21515;-45
2022/09/03 11:56:07;;;;;;;8.60;3.92;;;;;;;24.71;28.12;99992.73;1753636;80;21523;-45